createdAt,value
2023-03-27T00:02:23.682Z,16.30
2023-03-27T00:04:50.920Z,13.90
2023-03-27T00:07:20.078Z,13.13
2023-03-27T00:09:47.337Z,14.45
2023-03-27T00:12:14.552Z,14.20
2023-03-27T00:14:41.983Z,10.93
2023-03-27T00:17:09.496Z,17.85
2023-03-27T00:19:36.668Z,12.45
2023-03-27T00:22:03.924Z,16.05
2023-03-27T00:24:31.411Z,14.55
2023-03-27T00:26:58.729Z,13.02
2023-03-27T00:29:25.918Z,13.30
2023-03-27T00:31:53.005Z,14.45
2023-03-27T00:34:20.385Z,13.63
2023-03-27T00:36:51.175Z,14.55
2023-03-27T00:39:19.296Z,14.32
2023-03-27T00:41:47.368Z,12.20
2023-03-27T00:44:27.027Z,14.75
2023-03-27T00:46:57.183Z,12.48
2023-03-27T00:49:28.887Z,14.65
2023-03-27T00:51:59.053Z,12.25
2023-03-27T00:54:30.221Z,13.77
2023-03-27T00:57:01.521Z,13.50
2023-03-27T00:59:32.189Z,16.80
2023-03-27T01:02:02.326Z,13.48
2023-03-27T01:04:31.546Z,14.95
2023-03-27T01:07:00.279Z,13.15
2023-03-27T01:09:27.976Z,16.00
2023-03-27T01:12:14.709Z,17.63
2023-03-27T01:14:49.613Z,15.05
2023-03-27T01:17:33.733Z,16.85
2023-03-27T01:20:34.561Z,15.05
2023-03-27T01:23:17.221Z,17.35
2023-03-27T01:26:16.273Z,14.85
2023-03-27T01:29:33.504Z,16.55
2023-03-27T01:32:19.749Z,14.27
2023-03-27T01:34:46.984Z,11.30
2023-03-27T01:37:22.576Z,13.85
2023-03-27T01:40:20.002Z,14.98
2023-03-27T01:42:56.945Z,11.85
2023-03-27T01:45:48.963Z,16.02
2023-03-27T01:48:24.854Z,16.58
2023-03-27T01:50:57.696Z,12.77
2023-03-27T01:53:28.581Z,12.88
2023-03-27T01:56:32.809Z,11.75
2023-03-27T01:59:07.142Z,13.73
2023-03-27T02:01:45.862Z,12.85
2023-03-27T02:04:18.528Z,14.40
2023-03-27T02:06:52.219Z,14.57
2023-03-27T02:09:26.643Z,14.45
2023-03-27T02:12:04.249Z,17.33
2023-03-27T02:14:38.917Z,12.57
2023-03-27T02:17:13.006Z,14.57
2023-03-27T02:19:47.617Z,12.52
2023-03-27T02:22:16.252Z,15.43
2023-03-27T02:24:47.029Z,16.08
2023-03-27T02:27:32.592Z,18.80
2023-03-27T02:30:10.414Z,21.70
2023-03-27T02:32:53.990Z,20.30
2023-03-27T02:35:53.088Z,20.52
2023-03-27T02:38:45.143Z,18.35
2023-03-27T02:41:40.398Z,22.88
2023-03-27T02:44:46.673Z,21.88
2023-03-27T02:47:25.049Z,20.38
2023-03-27T02:50:04.418Z,24.63
2023-03-27T02:52:46.891Z,25.88
2023-03-27T02:55:24.596Z,22.52
2023-03-27T02:58:00.389Z,27.75
2023-03-27T03:00:41.337Z,22.88
2023-03-27T03:03:37.601Z,29.35
2023-03-27T03:06:20.372Z,28.55
2023-03-27T03:08:48.664Z,30.67
2023-03-27T03:11:15.960Z,28.13
2023-03-27T03:13:43.144Z,32.50
2023-03-27T03:16:10.571Z,32.42
2023-03-27T03:18:38.002Z,31.90
2023-03-27T03:21:05.855Z,31.52
2023-03-27T03:23:34.134Z,29.58
2023-03-27T03:26:03.500Z,33.30
2023-03-27T03:29:00.196Z,33.25
2023-03-27T03:31:43.498Z,35.55
2023-03-27T03:34:13.484Z,31.13
2023-03-27T03:36:42.209Z,30.33
2023-03-27T03:39:10.090Z,31.48
2023-03-27T03:41:37.340Z,31.33
2023-03-27T03:44:04.840Z,33.38
2023-03-27T03:46:32.586Z,30.38
2023-03-27T03:49:01.264Z,33.72
2023-03-27T03:51:28.978Z,29.23
2023-03-27T03:53:56.355Z,31.70
2023-03-27T03:56:24.634Z,30.10
2023-03-27T03:58:52.862Z,27.85
2023-03-27T04:01:20.817Z,36.97
2023-03-27T04:03:52.450Z,32.00
2023-03-27T04:06:25.746Z,33.78
2023-03-27T04:08:58.492Z,34.58
2023-03-27T04:11:47.141Z,34.53
2023-03-27T04:14:32.648Z,33.45
2023-03-27T04:17:04.656Z,32.90
2023-03-27T04:19:32.032Z,32.72
2023-03-27T04:22:05.146Z,33.90
2023-03-27T04:24:35.808Z,31.58
2023-03-27T04:27:03.096Z,30.25
2023-03-27T04:29:47.563Z,29.52
2023-03-27T04:32:33.267Z,26.73
2023-03-27T04:35:20.246Z,27.23
2023-03-27T04:38:04.723Z,23.25
2023-03-27T04:40:46.097Z,29.17
2023-03-27T04:43:14.030Z,33.17
2023-03-27T04:45:41.425Z,32.17
2023-03-27T04:48:09.332Z,29.73
2023-03-27T04:50:37.596Z,33.60
2023-03-27T04:53:05.277Z,35.53
2023-03-27T04:55:39.039Z,34.85
2023-03-27T04:58:08.250Z,33.15
2023-03-27T05:00:38.682Z,32.17
2023-03-27T05:03:27.864Z,30.52
2023-03-27T05:06:02.618Z,28.45
2023-03-27T05:08:29.659Z,29.55
2023-03-27T05:10:57.652Z,27.90
2023-03-27T05:13:25.625Z,29.17
2023-03-27T05:15:53.005Z,27.80
2023-03-27T05:18:24.340Z,31.50
2023-03-27T05:20:51.532Z,33.25
2023-03-27T05:23:18.737Z,34.88
2023-03-27T05:25:59.889Z,35.15
2023-03-27T05:28:42.699Z,28.13
2023-03-27T05:31:10.861Z,18.27
2023-03-27T05:33:49.630Z,18.05
2023-03-27T05:36:16.978Z,18.75
2023-03-27T05:38:44.451Z,18.55
2023-03-27T05:41:31.020Z,21.55
2023-03-27T05:43:58.277Z,17.85
2023-03-27T05:46:26.682Z,21.25
2023-03-27T05:49:01.485Z,23.45
2023-03-27T05:51:29.596Z,23.25
2023-03-27T05:53:57.149Z,21.30
2023-03-27T05:56:33.875Z,27.00
2023-03-27T05:59:03.682Z,26.88
2023-03-27T06:01:36.095Z,29.40
2023-03-27T06:04:04.612Z,34.35
2023-03-27T06:06:52.158Z,37.42
2023-03-27T06:09:20.454Z,40.30
2023-03-27T06:12:13.586Z,42.05
2023-03-27T06:14:40.667Z,41.75
2023-03-27T06:17:26.824Z,39.47
2023-03-27T06:20:00.385Z,43.05
2023-03-27T06:22:32.051Z,39.97
2023-03-27T06:25:05.856Z,35.78
2023-03-27T06:27:34.030Z,39.58
2023-03-27T06:30:01.334Z,38.00
2023-03-27T06:32:29.420Z,38.22
2023-03-27T06:34:57.532Z,33.58
2023-03-27T06:37:48.874Z,39.08
2023-03-27T06:40:24.441Z,41.45
2023-03-27T06:43:01.272Z,40.70
2023-03-27T06:45:54.770Z,44.80
2023-03-27T06:48:40.798Z,44.28
2023-03-27T06:51:08.700Z,46.60
2023-03-27T06:53:38.095Z,43.22
2023-03-27T06:56:06.789Z,44.40
2023-03-27T06:58:54.039Z,37.58
2023-03-27T07:01:26.956Z,35.60
2023-03-27T07:04:14.565Z,30.23
2023-03-27T07:06:50.992Z,27.20
2023-03-27T07:09:19.108Z,23.50
2023-03-27T07:11:57.369Z,23.70
2023-03-27T07:14:24.564Z,26.45
2023-03-27T07:16:52.063Z,25.50
2023-03-27T07:19:19.626Z,25.15
2023-03-27T07:21:56.743Z,27.17
2023-03-27T07:24:25.608Z,28.30
2023-03-27T07:26:52.994Z,27.70
2023-03-27T07:29:30.389Z,30.35
2023-03-27T07:32:00.541Z,27.08
2023-03-27T07:34:42.811Z,28.15
2023-03-27T07:37:29.230Z,31.30
2023-03-27T07:40:16.517Z,28.85
2023-03-27T07:42:54.456Z,30.08
2023-03-27T07:45:24.150Z,29.45
2023-03-27T07:48:04.053Z,30.30
2023-03-27T07:50:32.043Z,27.20
2023-03-27T07:52:59.587Z,28.42
2023-03-27T07:55:29.859Z,29.25
2023-03-27T07:58:07.260Z,28.20
2023-03-27T08:00:36.973Z,32.58
2023-03-27T08:03:16.757Z,30.10
2023-03-27T08:05:56.196Z,32.63
2023-03-27T08:08:25.763Z,32.88
2023-03-27T08:10:58.435Z,32.28
2023-03-27T08:13:30.200Z,27.30
2023-03-27T08:16:06.247Z,29.15
2023-03-27T08:18:33.829Z,32.25
2023-03-27T08:21:03.363Z,28.98
2023-03-27T08:23:32.849Z,31.17
2023-03-27T08:26:18.823Z,34.10
2023-03-27T08:29:09.019Z,30.13
2023-03-27T08:31:37.488Z,35.03
2023-03-27T08:34:06.702Z,33.63
2023-03-27T08:36:54.335Z,37.00
2023-03-27T08:39:38.840Z,34.67
2023-03-27T08:42:14.144Z,35.35
2023-03-27T08:44:45.806Z,35.65
2023-03-27T08:47:18.765Z,34.95
2023-03-27T08:50:02.859Z,29.90
2023-03-27T08:52:46.550Z,29.48
2023-03-27T08:55:44.715Z,28.08
2023-03-27T08:58:20.812Z,27.83
2023-03-27T09:01:01.010Z,26.85
2023-03-27T09:04:12.868Z,25.13
2023-03-27T09:07:03.162Z,19.42
2023-03-27T09:09:42.534Z,22.17
2023-03-27T09:12:11.836Z,19.40
2023-03-27T09:14:58.844Z,18.35
2023-03-27T09:17:45.542Z,17.08
2023-03-27T09:20:41.205Z,16.38
2023-03-27T09:23:24.645Z,17.85
2023-03-27T09:26:26.073Z,17.85
2023-03-27T09:29:25.624Z,16.02
2023-03-27T09:32:16.266Z,15.00
2023-03-27T09:34:45.000Z,14.85
2023-03-27T09:37:17.977Z,14.93
2023-03-27T09:39:51.598Z,18.25
2023-03-27T09:42:41.491Z,16.92
2023-03-27T09:45:12.795Z,14.70
2023-03-27T09:48:04.381Z,15.82
2023-03-27T09:50:49.263Z,17.17
2023-03-27T09:53:30.296Z,16.67
2023-03-27T09:56:16.471Z,14.18
2023-03-27T09:58:51.453Z,14.10
2023-03-27T10:01:28.161Z,14.40
2023-03-27T10:04:10.344Z,13.57
2023-03-27T10:06:44.809Z,14.80
2023-03-27T10:09:37.629Z,15.33
2023-03-27T10:12:08.097Z,18.27
2023-03-27T10:14:46.267Z,17.30
2023-03-27T10:17:24.515Z,17.93
2023-03-27T10:20:09.147Z,19.93
2023-03-27T10:22:42.599Z,19.67
2023-03-27T10:25:30.510Z,24.40
2023-03-27T10:28:18.656Z,29.00
2023-03-27T10:31:08.505Z,29.07
2023-03-27T10:33:47.565Z,29.00
2023-03-27T10:36:39.631Z,31.47
2023-03-27T10:39:15.455Z,29.87
2023-03-27T10:41:55.015Z,32.30
2023-03-27T10:44:26.085Z,30.03
2023-03-27T10:46:57.171Z,26.10
2023-03-27T10:49:46.351Z,26.17
2023-03-27T10:52:57.383Z,21.90
2023-03-27T10:56:19.103Z,24.07
2023-03-27T10:59:04.433Z,23.90
2023-03-27T11:01:42.407Z,24.70
2023-03-27T11:04:55.310Z,24.33
2023-03-27T11:07:38.018Z,27.57
2023-03-27T11:10:24.950Z,30.47
2023-03-27T11:13:23.051Z,30.87
2023-03-27T11:16:29.554Z,33.77
2023-03-27T11:19:38.288Z,35.63
2023-03-27T11:22:30.084Z,37.67
2023-03-27T11:25:07.996Z,35.67
2023-03-27T11:27:50.238Z,40.13
2023-03-27T11:30:38.437Z,37.37
2023-03-27T11:33:15.467Z,38.13
2023-03-27T11:35:52.294Z,37.77
2023-03-27T11:39:19.129Z,38.30
2023-03-27T11:41:54.689Z,37.90
2023-03-27T11:44:23.751Z,38.40
2023-03-27T11:47:19.315Z,40.50
2023-03-27T11:50:20.257Z,39.23
2023-03-27T11:53:07.188Z,35.67
2023-03-27T11:55:57.045Z,36.57
2023-03-27T11:58:44.333Z,42.07
2023-03-27T12:01:23.198Z,37.30
2023-03-27T12:04:20.884Z,32.83
2023-03-27T12:07:35.951Z,40.90
2023-03-27T12:10:30.015Z,32.80
2023-03-27T12:13:28.681Z,32.43
2023-03-27T12:16:21.495Z,31.17
2023-03-27T12:19:17.227Z,25.27
2023-03-27T12:22:23.872Z,19.67
2023-03-27T12:25:52.746Z,23.20
2023-03-27T12:28:44.831Z,21.13
2023-03-27T12:31:36.237Z,22.80
2023-03-27T12:34:20.919Z,22.73
2023-03-27T12:36:49.290Z,21.80
2023-03-27T12:39:24.508Z,20.47
2023-03-27T12:41:52.101Z,17.53
2023-03-27T12:44:31.699Z,21.03
2023-03-27T12:47:22.915Z,16.93
2023-03-27T12:50:00.768Z,19.67
2023-03-27T12:52:35.228Z,15.77
2023-03-27T12:55:14.658Z,14.27
2023-03-27T12:58:04.877Z,15.50
2023-03-27T13:01:03.661Z,14.67
2023-03-27T13:04:01.532Z,14.43
2023-03-27T13:06:38.686Z,14.27
2023-03-27T13:09:26.631Z,13.77
2023-03-27T13:12:18.334Z,14.57
2023-03-27T13:15:18.231Z,11.97
2023-03-27T13:18:13.188Z,10.33
2023-03-27T13:21:18.936Z,10.47
2023-03-27T13:24:29.182Z,11.37
2023-03-27T13:26:59.102Z,11.20
2023-03-27T13:29:33.189Z,14.00
2023-03-27T13:32:31.075Z,12.67
2023-03-27T13:35:22.910Z,13.80
2023-03-27T13:38:02.725Z,12.67
2023-03-27T13:40:50.913Z,13.60
2023-03-27T13:43:33.897Z,12.83
2023-03-27T13:46:29.520Z,10.87
2023-03-27T13:50:03.628Z,10.97
2023-03-27T13:52:57.095Z,11.93
2023-03-27T13:55:52.754Z,11.70
2023-03-27T13:59:09.675Z,13.07
2023-03-27T14:01:57.126Z,10.47
2023-03-27T14:05:01.654Z,9.13
2023-03-27T14:07:45.489Z,8.37
2023-03-27T14:10:36.678Z,9.13
2023-03-27T14:13:13.875Z,8.87
2023-03-27T14:15:55.149Z,9.57
2023-03-27T14:18:50.562Z,11.17
2023-03-27T14:21:35.581Z,7.97
2023-03-27T14:24:30.663Z,8.63
2023-03-27T14:27:23.089Z,10.30
2023-03-27T14:30:20.413Z,9.73
2023-03-27T14:33:16.060Z,8.33
2023-03-27T14:35:54.082Z,9.87
2023-03-27T14:38:25.016Z,8.57
2023-03-27T14:41:00.456Z,9.33
2023-03-27T14:43:53.402Z,10.50
2023-03-27T14:46:23.630Z,8.80
2023-03-27T14:48:58.298Z,10.00
2023-03-27T14:51:37.182Z,7.77
2023-03-27T14:54:17.791Z,9.73
2023-03-27T14:56:51.776Z,10.20
2023-03-27T14:59:38.889Z,9.83
2023-03-27T15:02:32.740Z,9.47
2023-03-27T15:05:24.650Z,10.70
2023-03-27T15:08:00.597Z,8.93
2023-03-27T15:10:54.899Z,12.93
2023-03-27T15:13:36.874Z,10.20
2023-03-27T15:16:11.995Z,11.47
2023-03-27T15:18:49.943Z,9.57
2023-03-27T15:21:34.836Z,9.53
2023-03-27T15:24:10.953Z,12.37
2023-03-27T15:26:39.623Z,9.80
2023-03-27T15:29:29.529Z,11.37
2023-03-27T15:31:59.933Z,12.33
2023-03-27T15:34:38.115Z,10.23
2023-03-27T15:37:13.185Z,8.90
2023-03-27T15:40:13.734Z,11.40
2023-03-27T15:43:08.512Z,9.53
2023-03-27T15:46:04.278Z,10.77
2023-03-27T15:48:40.505Z,10.73
2023-03-27T15:51:13.094Z,10.57
2023-03-27T15:53:45.228Z,9.50
2023-03-27T15:56:30.578Z,10.93
2023-03-27T15:59:13.699Z,9.83
2023-03-27T16:01:53.037Z,11.20
2023-03-27T16:04:35.637Z,11.20
2023-03-27T16:07:32.984Z,13.17
2023-03-27T16:10:05.294Z,10.53
2023-03-27T16:12:40.289Z,12.07
2023-03-27T16:15:28.421Z,9.97
2023-03-27T16:17:58.210Z,11.03
2023-03-27T16:20:25.691Z,10.40
2023-03-27T16:22:52.846Z,10.13
2023-03-27T16:25:20.141Z,9.43
2023-03-27T16:27:54.289Z,8.43
2023-03-27T16:30:32.620Z,8.53
2023-03-27T16:33:00.519Z,10.63
2023-03-27T16:35:29.721Z,9.27
2023-03-27T16:37:57.118Z,9.93
2023-03-27T16:40:24.568Z,9.63
2023-03-27T16:42:51.618Z,9.67
2023-03-27T16:45:18.694Z,9.27
2023-03-27T16:47:50.139Z,11.17
2023-03-27T16:50:22.805Z,9.47
2023-03-27T16:52:50.089Z,7.87
2023-03-27T16:55:17.551Z,7.70
2023-03-27T16:57:46.386Z,7.70
2023-03-27T17:00:15.669Z,6.93
2023-03-27T17:02:44.606Z,7.57
2023-03-27T17:05:12.083Z,7.17
2023-03-27T17:07:41.825Z,8.70
2023-03-27T17:10:10.476Z,10.10
2023-03-27T17:12:38.160Z,7.43
2023-03-27T17:15:06.080Z,6.70
2023-03-27T17:17:33.310Z,9.93
2023-03-27T17:20:01.056Z,8.73
2023-03-27T17:22:30.153Z,6.83
2023-03-27T17:25:01.216Z,10.43
2023-03-27T17:27:28.574Z,9.80
2023-03-27T17:29:56.440Z,7.53
2023-03-27T17:32:27.870Z,9.73
2023-03-27T17:34:55.396Z,7.50
2023-03-27T17:37:23.733Z,9.70
2023-03-27T17:39:50.935Z,10.40
2023-03-27T17:42:18.053Z,9.87
2023-03-27T17:44:45.622Z,8.00
2023-03-27T17:47:13.456Z,8.63
2023-03-27T17:49:45.178Z,8.77
2023-03-27T17:52:13.450Z,7.27
2023-03-27T17:54:40.653Z,9.17
2023-03-27T17:57:07.974Z,9.73
2023-03-27T17:59:36.701Z,8.13
2023-03-27T18:02:04.198Z,7.87
2023-03-27T18:04:33.261Z,9.20
2023-03-27T18:07:00.477Z,7.57
2023-03-27T18:09:27.665Z,10.13
2023-03-27T18:11:54.886Z,11.40
2023-03-27T18:14:22.216Z,10.07
2023-03-27T18:16:49.428Z,10.20
2023-03-27T18:19:16.597Z,7.60
2023-03-27T18:21:43.698Z,8.10
2023-03-27T18:24:11.306Z,9.70
2023-03-27T18:26:38.685Z,8.03
2023-03-27T18:29:05.930Z,7.40
2023-03-27T18:31:33.494Z,7.63
2023-03-27T18:34:01.174Z,8.30
2023-03-27T18:36:28.433Z,12.90
2023-03-27T18:38:56.564Z,8.37
2023-03-27T18:41:23.691Z,9.47
2023-03-27T18:43:50.809Z,9.93
2023-03-27T18:46:18.182Z,7.53
2023-03-27T18:48:49.166Z,9.57
2023-03-27T18:51:18.716Z,7.97
2023-03-27T18:53:46.219Z,7.50
2023-03-27T18:56:13.728Z,8.90
2023-03-27T18:58:40.947Z,12.00
2023-03-27T19:01:09.719Z,7.43
2023-03-27T19:03:39.071Z,9.40
2023-03-27T19:06:08.546Z,9.63
2023-03-27T19:08:39.701Z,13.33
2023-03-27T19:11:07.842Z,14.20
2023-03-27T19:13:53.555Z,9.90
2023-03-27T19:16:29.635Z,12.03
2023-03-27T19:19:15.703Z,9.63
2023-03-27T19:22:08.418Z,12.10
2023-03-27T19:24:40.965Z,11.93
2023-03-27T19:27:08.569Z,9.23
2023-03-27T19:29:51.876Z,10.63
2023-03-27T19:32:18.965Z,11.73
2023-03-27T19:34:46.033Z,8.83
2023-03-27T19:37:13.288Z,10.30
2023-03-27T19:39:40.344Z,9.20
2023-03-27T19:42:07.671Z,12.13
2023-03-27T19:44:38.196Z,11.50
2023-03-27T19:47:07.515Z,13.77
2023-03-27T19:49:34.775Z,11.57
2023-03-27T19:52:31.327Z,14.70
2023-03-27T19:54:58.445Z,17.40
2023-03-27T19:57:25.582Z,14.47
2023-03-27T19:59:53.053Z,12.13
2023-03-27T20:02:21.071Z,9.87
2023-03-27T20:04:49.391Z,10.17
2023-03-27T20:07:16.496Z,12.10
2023-03-27T20:09:43.654Z,10.83
2023-03-27T20:12:12.357Z,13.90
2023-03-27T20:14:39.473Z,12.67
2023-03-27T20:17:12.209Z,11.17
2023-03-27T20:19:50.006Z,15.10
2023-03-27T20:22:20.605Z,11.60
2023-03-27T20:24:48.940Z,10.60
2023-03-27T20:27:19.899Z,13.67
2023-03-27T20:29:47.685Z,11.50
2023-03-27T20:32:15.629Z,12.57
2023-03-27T20:34:42.773Z,16.40
2023-03-27T20:37:12.566Z,15.03
2023-03-27T20:40:11.755Z,14.50
2023-03-27T20:42:39.093Z,19.77
2023-03-27T20:45:08.274Z,13.80
2023-03-27T20:47:47.084Z,14.57
2023-03-27T20:50:17.138Z,14.40
2023-03-27T20:52:48.487Z,15.37
2023-03-27T20:55:32.444Z,16.43
2023-03-27T20:58:01.973Z,16.70
2023-03-27T21:00:29.095Z,16.73
2023-03-27T21:02:58.835Z,19.47
2023-03-27T21:05:26.593Z,20.97
2023-03-27T21:07:54.078Z,20.80
2023-03-27T21:10:21.549Z,18.10
2023-03-27T21:12:48.834Z,18.77
2023-03-27T21:15:16.018Z,18.37
2023-03-27T21:17:43.184Z,20.27
2023-03-27T21:20:11.270Z,19.37
2023-03-27T21:22:38.704Z,18.77
2023-03-27T21:25:06.595Z,17.23
2023-03-27T21:27:36.577Z,16.30
2023-03-27T21:30:05.921Z,22.10
2023-03-27T21:32:33.006Z,17.33
2023-03-27T21:35:00.396Z,21.93
2023-03-27T21:37:27.474Z,24.60
2023-03-27T21:39:54.610Z,19.83
2023-03-27T21:42:21.986Z,18.47
2023-03-27T21:44:53.778Z,24.33
2023-03-27T21:47:22.334Z,18.70
2023-03-27T21:49:49.604Z,20.07
2023-03-27T21:52:16.689Z,21.00
2023-03-27T21:54:56.341Z,21.23
2023-03-27T21:57:29.540Z,24.70
2023-03-27T21:59:56.582Z,23.57
2023-03-27T22:02:23.834Z,22.90
2023-03-27T22:04:51.094Z,22.70
2023-03-27T22:07:18.285Z,24.70
2023-03-27T22:09:45.541Z,26.63
2023-03-27T22:12:13.187Z,20.57
2023-03-27T22:14:40.579Z,20.63
2023-03-27T22:17:07.992Z,21.67
2023-03-27T22:19:35.424Z,26.70
2023-03-27T22:22:02.873Z,24.57
2023-03-27T22:24:29.987Z,25.27
2023-03-27T22:26:57.191Z,23.83
2023-03-27T22:29:24.549Z,21.77
2023-03-27T22:31:51.914Z,23.00
2023-03-27T22:34:18.934Z,22.13
2023-03-27T22:36:46.134Z,23.87
2023-03-27T22:39:13.220Z,24.43
2023-03-27T22:41:41.130Z,25.83
2023-03-27T22:44:08.294Z,21.17
2023-03-27T22:46:35.675Z,25.87
2023-03-27T22:49:02.955Z,22.37
2023-03-27T22:51:31.084Z,27.80
2023-03-27T22:53:58.562Z,22.50
2023-03-27T22:56:25.898Z,23.87
2023-03-27T22:58:53.069Z,26.77
2023-03-27T23:01:20.477Z,25.93
2023-03-27T23:03:47.835Z,24.13
2023-03-27T23:06:20.337Z,24.80
2023-03-27T23:08:49.298Z,26.93
2023-03-27T23:11:17.203Z,25.63
2023-03-27T23:13:44.951Z,28.30
2023-03-27T23:16:13.129Z,25.70
2023-03-27T23:18:40.803Z,30.00
2023-03-27T23:21:10.922Z,28.40
2023-03-27T23:23:40.527Z,26.03
2023-03-27T23:26:08.136Z,30.97
2023-03-27T23:28:37.896Z,31.27
2023-03-27T23:31:08.466Z,27.33
2023-03-27T23:33:38.638Z,29.43
2023-03-27T23:36:17.740Z,31.60
2023-03-27T23:38:45.321Z,31.80
2023-03-27T23:41:13.757Z,28.90
2023-03-27T23:43:41.059Z,27.47
2023-03-27T23:46:10.961Z,26.03
2023-03-27T23:48:40.568Z,28.07
2023-03-27T23:51:08.885Z,28.33
2023-03-27T23:53:36.833Z,32.93
2023-03-27T23:56:04.290Z,29.37
2023-03-27T23:58:34.742Z,28.97
